createdAt,value
2022-12-06T00:00:03.520Z,0.73
2022-12-06T00:01:03.597Z,0.73
2022-12-06T00:02:03.867Z,0.73
2022-12-06T00:03:03.975Z,0.73
2022-12-06T00:04:04.013Z,0.74
2022-12-06T00:05:04.182Z,0.74
2022-12-06T00:06:04.305Z,0.73
2022-12-06T00:07:04.392Z,0.72
2022-12-06T00:08:04.572Z,0.73
2022-12-06T00:09:04.661Z,0.75
2022-12-06T00:10:04.802Z,0.75
2022-12-06T00:11:04.941Z,0.74
2022-12-06T00:12:05.091Z,0.72
2022-12-06T00:13:05.202Z,0.71
2022-12-06T00:14:05.318Z,0.72
2022-12-06T00:15:05.455Z,0.72
2022-12-06T00:16:05.648Z,0.72
2022-12-06T00:17:05.695Z,0.73
2022-12-06T00:18:05.871Z,0.75
2022-12-06T00:19:05.959Z,0.76
2022-12-06T00:20:06.132Z,0.77
2022-12-06T00:21:06.199Z,0.77
2022-12-06T00:22:06.337Z,0.77
2022-12-06T00:23:06.534Z,0.77
2022-12-06T00:24:06.641Z,0.76
2022-12-06T00:25:06.727Z,0.77
2022-12-06T00:26:06.885Z,0.78
2022-12-06T00:27:06.971Z,0.78
2022-12-06T00:28:07.116Z,0.79
2022-12-06T00:29:07.222Z,0.80
2022-12-06T00:30:07.355Z,0.81
2022-12-06T00:31:07.490Z,0.82
2022-12-06T00:32:07.723Z,0.82
2022-12-06T00:33:08.257Z,0.83
2022-12-06T00:34:07.908Z,0.84
2022-12-06T00:35:08.065Z,0.84
2022-12-06T00:36:08.163Z,0.85
2022-12-06T00:37:08.304Z,0.85
2022-12-06T00:38:08.443Z,0.85
2022-12-06T00:39:08.542Z,0.85
2022-12-06T00:40:08.672Z,0.84
2022-12-06T00:41:08.811Z,0.84
2022-12-06T00:42:08.950Z,0.84
2022-12-06T00:43:09.172Z,0.85
2022-12-06T00:44:09.222Z,0.86
2022-12-06T00:45:09.373Z,0.87
2022-12-06T00:46:09.681Z,0.88
2022-12-06T00:47:09.640Z,0.88
2022-12-06T00:48:09.807Z,0.89
2022-12-06T00:49:09.925Z,0.90
2022-12-06T00:50:09.989Z,0.90
2022-12-06T00:51:10.141Z,0.89
2022-12-06T00:52:10.267Z,0.87
2022-12-06T00:53:10.444Z,0.85
2022-12-06T00:54:10.550Z,0.83
2022-12-06T00:55:10.623Z,0.83
2022-12-06T00:56:10.765Z,0.84
2022-12-06T00:57:10.905Z,0.86
2022-12-06T00:58:11.037Z,0.88
2022-12-06T00:59:11.176Z,0.89
2022-12-06T01:00:11.304Z,0.90
2022-12-06T01:01:11.573Z,0.91
2022-12-06T01:02:11.664Z,0.92
2022-12-06T01:03:11.843Z,0.93
2022-12-06T01:04:11.851Z,0.93
2022-12-06T01:05:11.932Z,0.93
2022-12-06T01:06:12.091Z,0.93
2022-12-06T01:07:12.205Z,0.94
2022-12-06T01:08:12.379Z,0.95
2022-12-06T01:09:12.454Z,0.95
2022-12-06T01:10:12.581Z,0.96
2022-12-06T01:11:12.720Z,0.96
2022-12-06T01:12:12.902Z,0.96
2022-12-06T01:13:12.988Z,0.97
2022-12-06T01:14:13.131Z,0.97
2022-12-06T01:15:13.293Z,0.98
2022-12-06T01:16:13.406Z,0.99
2022-12-06T01:17:13.549Z,1.00
2022-12-06T01:18:13.651Z,1.00
2022-12-06T01:19:13.801Z,0.99
2022-12-06T01:20:13.891Z,0.97
2022-12-06T01:21:14.052Z,0.96
2022-12-06T01:22:14.230Z,0.95
2022-12-06T01:23:14.933Z,0.96
2022-12-06T01:24:14.457Z,0.96
2022-12-06T01:25:14.585Z,0.96
2022-12-06T01:26:14.677Z,0.97
2022-12-06T01:27:14.818Z,0.97
2022-12-06T01:28:14.937Z,0.98
2022-12-06T01:29:15.035Z,0.99
2022-12-06T01:30:15.162Z,1.00
2022-12-06T01:31:15.384Z,1.01
2022-12-06T01:32:15.469Z,1.02
2022-12-06T01:33:15.543Z,1.03
2022-12-06T01:34:15.711Z,1.03
2022-12-06T01:35:15.809Z,1.04
2022-12-06T01:36:15.935Z,1.04
2022-12-06T01:37:16.087Z,1.04
2022-12-06T01:38:16.226Z,1.04
2022-12-06T01:39:16.361Z,1.02
2022-12-06T01:40:16.482Z,1.01
2022-12-06T01:41:16.622Z,1.00
2022-12-06T01:42:16.772Z,1.00
2022-12-06T01:43:16.880Z,1.00
2022-12-06T01:44:21.147Z,1.01
2022-12-06T01:45:17.160Z,1.00
2022-12-06T01:46:18.257Z,1.00
2022-12-06T01:47:17.411Z,0.99
2022-12-06T01:48:17.545Z,0.99
2022-12-06T01:49:17.670Z,0.99
2022-12-06T01:50:17.799Z,0.97
2022-12-06T01:51:17.954Z,0.98
2022-12-06T01:52:18.088Z,0.98
2022-12-06T01:53:21.383Z,0.98
2022-12-06T01:54:19.359Z,0.98
2022-12-06T01:55:18.494Z,0.97
2022-12-06T01:56:18.656Z,0.96
2022-12-06T01:57:18.771Z,0.95
2022-12-06T01:58:18.864Z,0.96
2022-12-06T01:59:18.995Z,0.97
2022-12-06T02:01:20.437Z,2.02
2022-12-06T02:02:20.646Z,1.58
2022-12-06T02:03:20.673Z,1.31
2022-12-06T02:04:20.952Z,1.18
2022-12-06T02:05:27.940Z,1.11
2022-12-06T02:06:21.052Z,1.07
2022-12-06T02:07:21.216Z,1.05
2022-12-06T02:08:21.435Z,1.05
2022-12-06T02:09:21.464Z,1.05
2022-12-06T02:10:21.607Z,1.06
2022-12-06T02:11:21.704Z,1.05
2022-12-06T02:12:21.880Z,1.04
2022-12-06T02:13:22.095Z,1.04
2022-12-06T02:14:22.123Z,1.04
2022-12-06T02:15:22.253Z,1.05
2022-12-06T02:16:22.421Z,1.04
2022-12-06T02:17:22.538Z,1.02
2022-12-06T02:18:22.752Z,1.03
2022-12-06T02:19:22.802Z,1.04
2022-12-06T02:20:22.921Z,1.06
2022-12-06T02:21:23.081Z,1.06
2022-12-06T02:22:23.234Z,1.06
2022-12-06T02:23:23.422Z,1.07
2022-12-06T02:24:23.480Z,1.09
2022-12-06T02:25:23.609Z,1.10
2022-12-06T02:26:23.740Z,1.10
2022-12-06T02:27:23.900Z,1.09
2022-12-06T02:28:24.048Z,1.09
2022-12-06T02:29:24.260Z,1.09
2022-12-06T02:30:24.294Z,1.10
2022-12-06T02:31:24.439Z,1.10
2022-12-06T02:32:24.497Z,1.10
2022-12-06T02:33:24.715Z,1.11
2022-12-06T02:34:24.796Z,1.12
2022-12-06T02:35:24.895Z,1.13
2022-12-06T02:36:25.034Z,1.14
2022-12-06T02:37:25.185Z,1.15
2022-12-06T02:38:25.327Z,1.15
2022-12-06T02:39:25.484Z,1.15
2022-12-06T02:40:25.594Z,1.14
2022-12-06T02:41:25.721Z,1.15
2022-12-06T02:42:25.817Z,1.15
2022-12-06T02:43:25.979Z,1.15
2022-12-06T02:44:26.117Z,1.15
2022-12-06T02:45:26.228Z,1.14
2022-12-06T02:46:26.380Z,1.14
2022-12-06T02:47:26.541Z,1.13
2022-12-06T02:48:26.615Z,1.13
2022-12-06T02:49:26.696Z,1.13
2022-12-06T02:50:26.871Z,1.14
2022-12-06T02:51:26.999Z,1.14
2022-12-06T02:52:27.122Z,1.13
2022-12-06T02:53:27.285Z,1.14
2022-12-06T02:54:28.403Z,1.14
2022-12-06T02:55:27.540Z,1.15
2022-12-06T02:56:27.615Z,1.15
2022-12-06T02:57:27.749Z,1.15
2022-12-06T02:58:27.993Z,1.15
2022-12-06T02:59:28.033Z,1.15
2022-12-06T03:00:28.238Z,1.14
2022-12-06T03:01:28.332Z,1.14
2022-12-06T03:02:28.552Z,1.13
2022-12-06T03:03:28.655Z,1.13
2022-12-06T03:04:28.702Z,1.13
2022-12-06T03:05:28.811Z,1.13
2022-12-06T03:06:28.886Z,1.13
2022-12-06T03:07:29.026Z,1.14
2022-12-06T03:08:29.257Z,1.15
2022-12-06T03:09:29.379Z,1.16
2022-12-06T03:10:29.511Z,1.17
2022-12-06T03:11:29.590Z,1.19
2022-12-06T03:12:29.729Z,1.20
2022-12-06T03:13:29.886Z,1.20
2022-12-06T03:14:29.964Z,1.18
2022-12-06T03:15:30.163Z,1.14
2022-12-06T03:16:30.215Z,1.13
2022-12-06T03:17:30.293Z,1.12
2022-12-06T03:18:30.484Z,1.12
2022-12-06T03:19:30.572Z,1.12
2022-12-06T03:20:30.702Z,1.13
2022-12-06T03:21:30.862Z,1.13
2022-12-06T03:22:33.474Z,1.13
2022-12-06T03:23:32.111Z,1.14
2022-12-06T03:24:31.219Z,1.14
2022-12-06T03:25:31.309Z,1.13
2022-12-06T03:26:31.458Z,1.14
2022-12-06T03:27:31.595Z,1.14
2022-12-06T03:28:31.816Z,1.14
2022-12-06T03:29:31.997Z,1.14
2022-12-06T03:30:32.018Z,1.15
2022-12-06T03:31:32.202Z,1.15
2022-12-06T03:32:32.336Z,1.15
2022-12-06T03:33:32.453Z,1.16
2022-12-06T03:34:32.537Z,1.17
2022-12-06T03:35:32.685Z,1.18
2022-12-06T03:36:32.807Z,1.20
2022-12-06T03:37:32.977Z,1.21
2022-12-06T03:38:33.117Z,1.22
2022-12-06T03:39:33.187Z,1.22
2022-12-06T03:40:33.366Z,1.21
2022-12-06T03:41:33.505Z,1.21
2022-12-06T03:42:33.616Z,1.22
2022-12-06T03:43:33.783Z,1.22
2022-12-06T03:44:33.886Z,1.22
2022-12-06T03:45:34.034Z,1.22
2022-12-06T03:46:34.194Z,1.21
2022-12-06T03:47:34.223Z,1.20
2022-12-06T03:48:34.396Z,1.21
2022-12-06T03:49:34.501Z,1.22
2022-12-06T03:50:34.668Z,1.24
2022-12-06T03:51:34.752Z,1.25
2022-12-06T03:52:34.864Z,1.25
2022-12-06T03:53:35.049Z,1.24
2022-12-06T03:54:35.208Z,1.24
2022-12-06T03:55:35.321Z,1.25
2022-12-06T03:56:35.414Z,1.26
2022-12-06T03:57:35.534Z,1.28
2022-12-06T03:58:35.711Z,1.28
2022-12-06T03:59:35.766Z,1.29
2022-12-06T04:00:35.898Z,1.29
2022-12-06T04:01:36.091Z,1.30
2022-12-06T04:02:36.246Z,1.31
2022-12-06T04:03:36.487Z,1.33
2022-12-06T04:04:36.411Z,1.34
2022-12-06T04:05:36.641Z,1.35
2022-12-06T04:06:36.729Z,1.36
2022-12-06T04:07:36.834Z,1.36
2022-12-06T04:08:37.011Z,1.37
2022-12-06T04:09:37.233Z,1.37
2022-12-06T04:10:37.255Z,1.38
2022-12-06T04:11:37.348Z,1.38
2022-12-06T04:12:37.495Z,1.38
2022-12-06T04:13:37.692Z,1.38
2022-12-06T04:14:37.778Z,1.38
2022-12-06T04:15:38.038Z,1.38
2022-12-06T04:16:38.102Z,1.38
2022-12-06T04:17:38.133Z,1.38
2022-12-06T04:18:38.303Z,1.38
2022-12-06T04:19:38.394Z,1.38
2022-12-06T04:20:38.532Z,1.39
2022-12-06T04:21:38.661Z,1.40
2022-12-06T04:22:38.791Z,1.40
2022-12-06T04:23:38.959Z,1.40
2022-12-06T04:24:39.092Z,1.40
2022-12-06T04:25:39.164Z,1.39
2022-12-06T04:26:39.289Z,1.39
2022-12-06T04:27:39.470Z,1.39
2022-12-06T04:28:39.621Z,1.40
2022-12-06T04:29:39.810Z,1.40
2022-12-06T04:30:39.827Z,1.41
2022-12-06T04:31:40.013Z,1.42
2022-12-06T04:32:40.107Z,1.43
2022-12-06T04:33:40.260Z,1.43
2022-12-06T04:34:40.338Z,1.44
2022-12-06T04:35:40.519Z,1.43
2022-12-06T04:36:40.655Z,1.43
2022-12-06T04:37:40.755Z,1.42
2022-12-06T04:38:40.981Z,1.42
2022-12-06T04:39:40.985Z,1.40
2022-12-06T04:40:41.156Z,1.39
2022-12-06T04:41:41.276Z,1.38
2022-12-06T04:42:41.356Z,1.38
2022-12-06T04:43:41.546Z,1.38
2022-12-06T04:44:41.615Z,1.39
2022-12-06T04:45:41.747Z,1.38
2022-12-06T04:46:41.916Z,1.37
2022-12-06T04:47:42.028Z,1.37
2022-12-06T04:48:42.213Z,1.35
2022-12-06T04:49:42.379Z,1.34
2022-12-06T04:50:42.395Z,1.33
2022-12-06T04:51:42.628Z,1.32
2022-12-06T04:52:42.670Z,1.32
2022-12-06T04:53:43.820Z,1.31
2022-12-06T04:54:42.946Z,1.31
2022-12-06T04:55:43.010Z,1.31
2022-12-06T04:56:43.198Z,1.32
2022-12-06T04:57:43.281Z,1.32
2022-12-06T04:58:43.497Z,1.31
2022-12-06T04:59:43.572Z,1.32
2022-12-06T05:00:43.755Z,1.33
2022-12-06T05:01:43.819Z,1.33
2022-12-06T05:02:44.078Z,1.33
2022-12-06T05:03:44.598Z,1.34
2022-12-06T05:04:44.290Z,1.34
2022-12-06T05:05:44.364Z,1.34
2022-12-06T05:06:44.461Z,1.34
2022-12-06T05:07:44.748Z,1.35
2022-12-06T05:08:44.790Z,1.36
2022-12-06T05:09:44.948Z,1.37
2022-12-06T05:10:44.977Z,1.38
2022-12-06T05:11:45.116Z,1.40
2022-12-06T05:12:45.227Z,1.41
2022-12-06T05:13:45.424Z,1.41
2022-12-06T05:14:45.513Z,1.42
2022-12-06T05:15:45.633Z,1.42
2022-12-06T05:16:45.837Z,1.42
2022-12-06T05:17:45.944Z,1.42
2022-12-06T05:18:46.125Z,1.42
2022-12-06T05:19:46.196Z,1.43
2022-12-06T05:20:46.314Z,1.45
2022-12-06T05:21:46.390Z,1.45
2022-12-06T05:22:46.518Z,1.46
2022-12-06T05:23:46.650Z,1.46
2022-12-06T05:24:46.799Z,1.46
2022-12-06T05:25:46.914Z,1.47
2022-12-06T05:26:47.063Z,1.47
2022-12-06T05:27:47.201Z,1.47
2022-12-06T05:28:47.398Z,1.47
2022-12-06T05:29:47.497Z,1.49
2022-12-06T05:30:47.611Z,1.50
2022-12-06T05:31:47.885Z,1.51
2022-12-06T05:32:51.318Z,1.51
2022-12-06T05:33:49.011Z,1.49
2022-12-06T05:34:48.155Z,1.47
2022-12-06T05:35:48.249Z,1.46
2022-12-06T05:36:48.406Z,1.47
2022-12-06T05:37:48.533Z,1.49
2022-12-06T05:38:51.568Z,1.51
2022-12-06T05:39:48.814Z,1.51
2022-12-06T05:40:48.899Z,1.53
2022-12-06T05:41:49.033Z,1.54
2022-12-06T05:42:49.165Z,1.55
2022-12-06T05:43:49.332Z,1.55
2022-12-06T05:44:49.477Z,1.56
2022-12-06T05:45:49.663Z,1.57
2022-12-06T05:46:49.716Z,1.58
2022-12-06T05:47:49.842Z,1.58
2022-12-06T05:48:49.962Z,1.58
2022-12-06T05:49:50.290Z,1.59
2022-12-06T05:50:50.303Z,1.59
2022-12-06T05:51:50.463Z,1.60
2022-12-06T05:52:50.520Z,1.61
2022-12-06T05:53:50.728Z,1.62
2022-12-06T05:54:50.814Z,1.64
2022-12-06T05:55:50.927Z,1.64
2022-12-06T05:56:51.051Z,1.64
2022-12-06T05:57:51.208Z,1.64
2022-12-06T05:58:51.306Z,1.65
2022-12-06T05:59:51.530Z,1.65
2022-12-06T06:00:51.558Z,1.66
2022-12-06T06:01:51.750Z,1.67
2022-12-06T06:02:51.894Z,1.69
2022-12-06T06:03:52.002Z,1.70
2022-12-06T06:04:52.155Z,1.71
2022-12-06T06:05:52.214Z,1.71
2022-12-06T06:06:52.313Z,1.70
2022-12-06T06:07:52.489Z,1.70
2022-12-06T06:08:52.540Z,1.71
2022-12-06T06:09:52.863Z,1.72
2022-12-06T06:10:52.812Z,1.73
2022-12-06T06:11:52.958Z,1.74
2022-12-06T06:12:53.096Z,1.75
2022-12-06T06:13:53.232Z,1.75
2022-12-06T06:14:53.427Z,1.76
2022-12-06T06:15:53.484Z,1.76
2022-12-06T06:16:53.668Z,1.76
2022-12-06T06:17:53.769Z,1.76
2022-12-06T06:18:53.933Z,1.76
2022-12-06T06:19:54.052Z,1.76
2022-12-06T06:20:54.255Z,1.76
2022-12-06T06:21:54.284Z,1.77
2022-12-06T06:22:54.481Z,1.77
2022-12-06T06:23:54.577Z,1.77
2022-12-06T06:24:54.732Z,1.77
2022-12-06T06:25:54.813Z,1.77
2022-12-06T06:26:54.973Z,1.77
2022-12-06T06:27:55.096Z,1.77
2022-12-06T06:28:55.220Z,1.78
2022-12-06T06:29:55.378Z,1.78
2022-12-06T06:30:55.478Z,1.79
2022-12-06T06:31:55.668Z,1.80
2022-12-06T06:32:55.726Z,1.80
2022-12-06T06:33:55.855Z,1.81
2022-12-06T06:34:56.068Z,1.81
2022-12-06T06:35:56.217Z,1.80
2022-12-06T06:36:56.264Z,1.79
2022-12-06T06:37:56.430Z,1.79
2022-12-06T06:38:56.485Z,1.79
2022-12-06T06:39:56.814Z,1.79
2022-12-06T06:40:56.757Z,1.80
2022-12-06T06:41:56.855Z,1.80
2022-12-06T06:42:56.986Z,1.80
2022-12-06T06:43:57.123Z,1.81
2022-12-06T06:44:57.435Z,1.81
2022-12-06T06:45:57.476Z,1.82
2022-12-06T06:46:57.513Z,1.82
2022-12-06T06:47:57.659Z,1.82
2022-12-06T06:48:57.780Z,1.82
2022-12-06T06:49:58.015Z,1.83
2022-12-06T06:50:58.151Z,1.83
2022-12-06T06:51:58.179Z,1.84
2022-12-06T06:52:58.301Z,1.84
2022-12-06T06:53:58.477Z,1.85
2022-12-06T06:54:58.594Z,1.85
2022-12-06T06:55:58.819Z,1.85
2022-12-06T06:56:58.846Z,1.85
2022-12-06T06:57:59.017Z,1.85
2022-12-06T06:58:59.084Z,1.86
2022-12-06T06:59:59.635Z,1.86
2022-12-06T07:00:59.425Z,1.86
2022-12-06T07:01:59.569Z,1.87
2022-12-06T07:02:59.690Z,1.87
2022-12-06T07:03:59.818Z,1.87
2022-12-06T07:05:00.052Z,1.87
2022-12-06T07:06:00.018Z,1.88
2022-12-06T07:07:00.146Z,1.89
2022-12-06T07:08:00.473Z,1.89
2022-12-06T07:09:00.410Z,1.89
2022-12-06T07:10:01.292Z,1.89
2022-12-06T07:11:00.671Z,1.89
2022-12-06T07:12:01.717Z,1.90
2022-12-06T07:13:00.893Z,1.91
2022-12-06T07:14:01.050Z,1.91
2022-12-06T07:15:01.194Z,1.91
2022-12-06T07:16:01.365Z,1.91
2022-12-06T07:17:01.424Z,1.91
2022-12-06T07:18:01.533Z,1.92
2022-12-06T07:19:07.574Z,1.93
2022-12-06T07:20:03.080Z,1.93
2022-12-06T07:21:01.943Z,1.93
2022-12-06T07:22:02.155Z,1.94
2022-12-06T07:23:02.237Z,1.95
2022-12-06T07:24:02.373Z,1.95
2022-12-06T07:25:02.483Z,1.96
2022-12-06T07:26:02.660Z,1.96
2022-12-06T07:27:02.742Z,1.97
2022-12-06T07:28:02.895Z,1.97
2022-12-06T07:29:02.988Z,1.98
2022-12-06T07:30:04.230Z,1.99
2022-12-06T07:31:03.338Z,2.00
2022-12-06T07:32:03.381Z,2.00
2022-12-06T07:33:03.524Z,2.00
2022-12-06T07:34:03.660Z,2.00
2022-12-06T07:35:03.799Z,2.00
2022-12-06T07:36:12.018Z,2.00
2022-12-06T07:37:05.048Z,1.99
2022-12-06T07:38:04.174Z,1.98
2022-12-06T07:39:04.307Z,1.98
2022-12-06T07:40:04.451Z,1.98
2022-12-06T07:41:05.307Z,1.98
2022-12-06T07:42:04.704Z,1.99
2022-12-06T07:43:04.833Z,1.99
2022-12-06T07:44:04.995Z,2.00
2022-12-06T07:45:05.130Z,2.01
2022-12-06T07:46:05.292Z,2.02
2022-12-06T07:47:05.462Z,2.03
2022-12-06T07:48:05.504Z,2.03
2022-12-06T07:49:05.636Z,2.04
2022-12-06T07:50:05.861Z,2.05
2022-12-06T07:51:05.912Z,2.05
2022-12-06T07:52:06.051Z,2.06
2022-12-06T07:53:06.122Z,2.07
2022-12-06T07:54:06.288Z,2.08
2022-12-06T07:55:06.431Z,2.08
2022-12-06T07:56:06.560Z,2.08
2022-12-06T07:57:06.686Z,2.09
2022-12-06T07:58:06.823Z,2.09
2022-12-06T07:59:07.047Z,2.09
2022-12-06T08:00:07.061Z,2.10
2022-12-06T08:01:07.190Z,2.11
2022-12-06T08:02:07.259Z,2.11
2022-12-06T08:03:07.390Z,2.12
2022-12-06T08:04:07.572Z,2.13
2022-12-06T08:05:07.701Z,2.14
2022-12-06T08:06:07.811Z,2.15
2022-12-06T08:07:07.980Z,2.16
2022-12-06T08:08:08.127Z,2.17
2022-12-06T08:09:08.168Z,2.18
2022-12-06T08:10:08.809Z,2.19
2022-12-06T08:11:08.461Z,2.20
2022-12-06T08:12:08.558Z,2.20
2022-12-06T08:13:08.686Z,2.20
2022-12-06T08:14:08.825Z,2.20
2022-12-06T08:15:09.049Z,2.21
2022-12-06T08:16:09.172Z,2.21
2022-12-06T08:17:09.258Z,2.22
2022-12-06T08:18:09.428Z,2.22
2022-12-06T08:19:09.500Z,2.24
2022-12-06T08:20:09.672Z,2.25
2022-12-06T08:21:09.786Z,2.27
2022-12-06T08:22:09.895Z,2.28
2022-12-06T08:23:10.091Z,2.29
2022-12-06T08:24:10.173Z,2.30
2022-12-06T08:25:10.421Z,2.31
2022-12-06T08:26:10.454Z,2.32
2022-12-06T08:27:10.591Z,2.32
2022-12-06T08:28:10.726Z,2.33
2022-12-06T08:29:10.953Z,2.33
2022-12-06T08:30:11.063Z,2.34
2022-12-06T08:31:11.168Z,2.36
2022-12-06T08:32:11.259Z,2.37
2022-12-06T08:33:11.374Z,2.38
2022-12-06T08:34:11.490Z,2.40
2022-12-06T08:35:11.639Z,2.41
2022-12-06T08:36:11.818Z,2.43
2022-12-06T08:37:11.879Z,2.45
2022-12-06T08:38:12.023Z,2.46
2022-12-06T08:39:12.152Z,2.48
2022-12-06T08:40:12.288Z,2.50
2022-12-06T08:41:12.447Z,2.51
2022-12-06T08:42:12.611Z,2.52
2022-12-06T08:43:12.705Z,2.54
2022-12-06T08:44:12.818Z,2.55
2022-12-06T08:45:12.955Z,2.56
2022-12-06T08:46:13.141Z,2.57
2022-12-06T08:47:13.263Z,2.57
2022-12-06T08:48:13.344Z,2.58
2022-12-06T08:49:13.483Z,2.58
2022-12-06T08:50:13.632Z,2.59
2022-12-06T08:51:13.812Z,2.61
2022-12-06T08:52:13.880Z,2.63
2022-12-06T08:53:14.014Z,2.64
2022-12-06T08:54:14.146Z,2.66
2022-12-06T08:55:14.274Z,2.67
2022-12-06T08:56:14.435Z,2.68
2022-12-06T08:57:14.511Z,2.69
2022-12-06T08:58:14.653Z,2.70
2022-12-06T08:59:14.835Z,2.72
2022-12-06T09:00:14.942Z,2.73
2022-12-06T09:01:15.196Z,2.74
2022-12-06T09:02:15.271Z,2.75
2022-12-06T09:03:15.309Z,2.76
2022-12-06T09:04:15.542Z,2.78
2022-12-06T09:05:15.579Z,2.79
2022-12-06T09:06:15.759Z,2.81
2022-12-06T09:07:15.843Z,2.82
2022-12-06T09:08:16.107Z,2.83
2022-12-06T09:09:16.103Z,2.84
2022-12-06T09:10:16.208Z,2.86
2022-12-06T09:11:16.389Z,2.87
2022-12-06T09:12:16.481Z,2.89
2022-12-06T09:13:16.605Z,2.90
2022-12-06T09:14:21.597Z,2.91
2022-12-06T09:15:17.856Z,2.93
2022-12-06T09:16:17.132Z,2.94
2022-12-06T09:17:17.139Z,2.95
2022-12-06T09:18:17.245Z,2.96
2022-12-06T09:19:17.374Z,2.97
2022-12-06T09:20:17.588Z,2.98
2022-12-06T09:21:17.682Z,2.99
2022-12-06T09:22:17.804Z,3.00
2022-12-06T09:23:17.932Z,3.01
2022-12-06T09:24:18.093Z,3.02
2022-12-06T09:25:18.193Z,3.03
2022-12-06T09:26:18.396Z,3.05
2022-12-06T09:27:18.507Z,3.06
2022-12-06T09:28:18.602Z,3.08
2022-12-06T09:29:18.743Z,3.09
2022-12-06T09:30:18.900Z,3.10
2022-12-06T09:31:19.136Z,3.11
2022-12-06T09:32:19.120Z,3.11
2022-12-06T09:33:19.257Z,3.12
2022-12-06T09:34:19.390Z,3.12
2022-12-06T09:35:24.703Z,3.13
2022-12-06T09:36:20.699Z,3.13
2022-12-06T09:37:19.828Z,3.14
2022-12-06T09:38:19.912Z,3.15
2022-12-06T09:39:20.070Z,3.17
2022-12-06T09:40:20.187Z,3.18
2022-12-06T09:41:20.328Z,3.19
2022-12-06T09:42:20.456Z,3.20
2022-12-06T09:43:20.527Z,3.21
2022-12-06T09:44:20.717Z,3.23
2022-12-06T09:45:20.851Z,3.24
2022-12-06T09:46:21.074Z,3.25
2022-12-06T09:47:21.115Z,3.26
2022-12-06T09:48:21.212Z,3.26
2022-12-06T09:49:21.350Z,3.27
2022-12-06T09:50:21.555Z,3.28
2022-12-06T09:51:21.614Z,3.29
2022-12-06T09:52:21.713Z,3.30
2022-12-06T09:53:21.846Z,3.31
2022-12-06T09:54:21.973Z,3.32
2022-12-06T09:55:22.110Z,3.34
2022-12-06T09:56:22.264Z,3.35
2022-12-06T09:57:22.365Z,3.36
2022-12-06T09:58:22.502Z,3.37
2022-12-06T09:59:22.661Z,3.38
2022-12-06T10:00:23.379Z,3.39
2022-12-06T10:01:22.960Z,3.39
2022-12-06T10:02:23.001Z,3.40
2022-12-06T10:03:23.222Z,3.41
2022-12-06T10:04:23.281Z,3.42
2022-12-06T10:05:23.382Z,3.43
2022-12-06T10:06:23.549Z,3.45
2022-12-06T10:07:23.641Z,3.47
2022-12-06T10:08:23.898Z,3.49
2022-12-06T10:09:24.103Z,3.51
2022-12-06T10:10:24.128Z,3.53
2022-12-06T10:11:24.193Z,3.56
2022-12-06T10:12:24.344Z,3.59
2022-12-06T10:13:24.413Z,3.61
2022-12-06T10:14:24.547Z,3.63
2022-12-06T10:15:24.691Z,3.64
2022-12-06T10:16:24.903Z,3.65
2022-12-06T10:17:24.967Z,3.66
2022-12-06T10:18:25.095Z,3.66
2022-12-06T10:19:25.260Z,3.66
2022-12-06T10:20:25.366Z,3.67
2022-12-06T10:21:25.562Z,3.68
2022-12-06T10:22:25.644Z,3.69
2022-12-06T10:23:25.765Z,3.69
2022-12-06T10:24:25.921Z,3.69
2022-12-06T10:25:26.047Z,3.69
2022-12-06T10:26:26.234Z,3.70
2022-12-06T10:27:26.343Z,3.70
2022-12-06T10:28:26.442Z,3.70
2022-12-06T10:29:29.699Z,3.71
2022-12-06T10:30:26.752Z,3.71
2022-12-06T10:31:26.955Z,3.72
2022-12-06T10:32:27.035Z,3.72
2022-12-06T10:33:27.101Z,3.73
2022-12-06T10:34:27.234Z,3.72
2022-12-06T10:35:27.388Z,3.68
2022-12-06T10:36:27.548Z,3.65
2022-12-06T10:37:27.673Z,3.64
2022-12-06T10:38:27.794Z,3.63
2022-12-06T10:39:27.932Z,3.63
2022-12-06T10:40:28.023Z,3.64
2022-12-06T10:41:28.188Z,3.65
2022-12-06T10:42:28.320Z,3.65
2022-12-06T10:43:28.448Z,3.65
2022-12-06T10:44:28.568Z,3.66
2022-12-06T10:45:28.662Z,3.67
2022-12-06T10:46:28.856Z,3.68
2022-12-06T10:47:28.918Z,3.68
2022-12-06T10:48:29.047Z,3.67
2022-12-06T10:49:29.238Z,3.66
2022-12-06T10:50:29.384Z,3.66
2022-12-06T10:51:29.458Z,3.66
2022-12-06T10:52:29.545Z,3.68
2022-12-06T10:53:29.701Z,3.70
2022-12-06T10:54:29.830Z,3.72
2022-12-06T10:55:29.908Z,3.72
2022-12-06T10:56:30.077Z,3.71
2022-12-06T10:57:30.163Z,3.70
2022-12-06T10:58:30.296Z,3.70
2022-12-06T10:59:30.432Z,3.71
2022-12-06T11:00:30.641Z,3.72
2022-12-06T11:01:30.782Z,3.71
2022-12-06T11:02:30.858Z,3.70
2022-12-06T11:03:30.982Z,3.69
2022-12-06T11:04:31.101Z,3.70
2022-12-06T11:05:31.191Z,3.73
2022-12-06T11:06:31.361Z,3.76
2022-12-06T11:07:31.653Z,3.78
2022-12-06T11:08:31.572Z,3.81
2022-12-06T11:09:31.817Z,3.84
2022-12-06T11:10:31.890Z,3.85
2022-12-06T11:11:32.050Z,3.87
2022-12-06T11:12:32.099Z,3.89
2022-12-06T11:13:32.193Z,3.91
2022-12-06T11:14:32.363Z,3.92
2022-12-06T11:15:32.450Z,3.95
2022-12-06T11:16:32.699Z,3.96
2022-12-06T11:17:32.709Z,3.96
2022-12-06T11:18:32.828Z,3.98
2022-12-06T11:19:32.961Z,3.99
2022-12-06T11:20:33.141Z,3.99
2022-12-06T11:21:33.251Z,3.98
2022-12-06T11:22:33.356Z,3.95
2022-12-06T11:23:33.563Z,3.93
2022-12-06T11:24:33.619Z,3.94
2022-12-06T11:25:33.787Z,3.98
2022-12-06T11:26:33.915Z,4.02
2022-12-06T11:27:34.006Z,4.06
2022-12-06T11:28:34.156Z,4.10
2022-12-06T11:29:34.259Z,4.13
2022-12-06T11:30:34.537Z,4.16
2022-12-06T11:31:34.629Z,4.15
2022-12-06T11:32:34.670Z,4.13
2022-12-06T11:33:34.784Z,4.15
2022-12-06T11:34:34.924Z,4.17
2022-12-06T11:35:35.054Z,4.20
2022-12-06T11:36:35.214Z,4.23
2022-12-06T11:37:37.778Z,4.23
2022-12-06T11:38:36.504Z,4.21
2022-12-06T11:39:35.643Z,4.19
2022-12-06T11:40:35.712Z,4.18
2022-12-06T11:41:35.913Z,4.16
2022-12-06T11:42:35.991Z,4.14
2022-12-06T11:43:36.115Z,4.11
2022-12-06T11:44:36.223Z,4.06
2022-12-06T11:45:36.366Z,4.02
2022-12-06T11:46:36.632Z,4.00
2022-12-06T11:47:36.621Z,4.01
2022-12-06T11:48:36.768Z,4.04
2022-12-06T11:49:36.931Z,4.06
2022-12-06T11:50:37.210Z,4.07
2022-12-06T11:51:37.158Z,4.05
2022-12-06T11:52:37.303Z,4.02
2022-12-06T11:53:37.470Z,4.00
2022-12-06T11:54:37.587Z,3.97
2022-12-06T11:55:37.713Z,3.96
2022-12-06T11:56:37.829Z,3.96
2022-12-06T11:57:37.985Z,3.96
2022-12-06T11:58:38.087Z,3.97
2022-12-06T11:59:38.221Z,3.99
2022-12-06T12:00:38.404Z,3.99
2022-12-06T12:01:38.525Z,3.99
2022-12-06T12:02:38.681Z,4.00
2022-12-06T12:03:38.781Z,4.01
2022-12-06T12:04:38.847Z,4.03
2022-12-06T12:05:39.008Z,4.06
2022-12-06T12:06:39.159Z,4.09
2022-12-06T12:07:39.397Z,4.12
2022-12-06T12:08:39.375Z,4.15
2022-12-06T12:09:39.514Z,4.17
2022-12-06T12:10:39.672Z,4.18
2022-12-06T12:11:39.763Z,4.19
2022-12-06T12:12:39.936Z,4.19
2022-12-06T12:13:40.075Z,4.21
2022-12-06T12:14:40.145Z,4.22
2022-12-06T12:15:40.288Z,4.24
2022-12-06T12:16:40.506Z,4.27
2022-12-06T12:17:40.614Z,4.29
2022-12-06T12:18:40.662Z,4.31
2022-12-06T12:19:40.791Z,4.33
2022-12-06T12:20:40.959Z,4.35
2022-12-06T12:21:41.061Z,4.33
2022-12-06T12:22:41.220Z,4.30
2022-12-06T12:23:41.312Z,4.27
2022-12-06T12:25:03.130Z,4.23
2022-12-06T12:25:42.589Z,4.20
2022-12-06T12:26:41.777Z,4.19
2022-12-06T12:27:41.897Z,4.17
2022-12-06T12:28:42.099Z,4.15
2022-12-06T12:29:42.136Z,4.14
2022-12-06T12:30:42.289Z,4.15
2022-12-06T12:31:42.417Z,4.18
2022-12-06T12:32:42.555Z,4.24
2022-12-06T12:33:42.654Z,4.31
2022-12-06T12:34:43.119Z,4.37
2022-12-06T12:35:42.905Z,4.41
2022-12-06T12:36:43.114Z,4.44
2022-12-06T12:37:43.169Z,4.45
2022-12-06T12:38:43.345Z,4.43
2022-12-06T12:39:43.486Z,4.40
2022-12-06T12:40:43.607Z,4.38
2022-12-06T12:41:43.721Z,4.35
2022-12-06T12:42:43.835Z,4.35
2022-12-06T12:43:43.955Z,4.35
2022-12-06T12:44:44.078Z,4.33
2022-12-06T12:45:44.245Z,4.32
2022-12-06T12:46:44.292Z,4.30
2022-12-06T12:47:44.414Z,4.28
2022-12-06T12:48:44.606Z,4.25
2022-12-06T12:49:44.687Z,4.21
2022-12-06T12:50:44.927Z,4.18
2022-12-06T12:51:48.091Z,4.16
2022-12-06T12:52:45.076Z,4.14
2022-12-06T12:53:45.298Z,4.14
2022-12-06T12:54:45.340Z,4.16
2022-12-06T12:55:45.466Z,4.19
2022-12-06T12:56:45.560Z,4.23
2022-12-06T12:57:45.691Z,4.25
2022-12-06T12:58:45.985Z,4.26
2022-12-06T12:59:45.959Z,4.26
2022-12-06T13:00:46.184Z,4.26
2022-12-06T13:01:46.272Z,4.26
2022-12-06T13:02:46.406Z,4.26
2022-12-06T13:03:51.371Z,4.25
2022-12-06T13:04:50.773Z,4.24
2022-12-06T13:05:48.047Z,4.22
2022-12-06T13:06:46.938Z,4.21
2022-12-06T13:07:47.073Z,4.22
2022-12-06T13:08:47.168Z,4.25
2022-12-06T13:09:47.247Z,4.27
2022-12-06T13:10:47.440Z,4.29
2022-12-06T13:11:47.554Z,4.29
2022-12-06T13:12:47.656Z,4.27
2022-12-06T13:13:47.846Z,4.24
2022-12-06T13:14:47.952Z,4.19
2022-12-06T13:15:48.078Z,4.15
2022-12-06T13:16:48.265Z,4.12
2022-12-06T13:17:48.408Z,4.09
2022-12-06T13:18:48.494Z,4.07
2022-12-06T13:19:53.261Z,4.05
2022-12-06T13:20:49.724Z,4.03